createdAt,value
2023-03-29T00:00:16.838Z,81.64
2023-03-29T00:02:48.829Z,81.62
2023-03-29T00:05:17.769Z,81.59
2023-03-29T00:07:45.355Z,81.42
2023-03-29T00:10:13.311Z,81.19
2023-03-29T00:12:42.122Z,82.32
2023-03-29T00:15:10.124Z,80.99
2023-03-29T00:17:37.866Z,82.11
2023-03-29T00:20:10.465Z,81.62
2023-03-29T00:22:39.901Z,82.42
2023-03-29T00:25:07.741Z,81.54
2023-03-29T00:27:35.209Z,82.70
2023-03-29T00:30:05.650Z,82.17
2023-03-29T00:32:34.147Z,81.96
2023-03-29T00:35:01.899Z,82.31
2023-03-29T00:37:30.453Z,82.30
2023-03-29T00:39:58.126Z,81.52
2023-03-29T00:42:26.239Z,81.66
2023-03-29T00:45:05.428Z,82.66
2023-03-29T00:47:35.060Z,81.95
2023-03-29T00:50:07.113Z,82.03
2023-03-29T00:52:36.011Z,81.35
2023-03-29T00:55:10.257Z,81.68
2023-03-29T00:57:39.910Z,82.05
2023-03-29T01:00:12.078Z,81.94
2023-03-29T01:02:42.556Z,82.17
2023-03-29T01:05:15.352Z,82.30
2023-03-29T01:07:51.142Z,82.65
2023-03-29T01:10:23.734Z,81.69
2023-03-29T01:12:56.477Z,81.87
2023-03-29T01:15:28.064Z,81.87
2023-03-29T01:17:58.322Z,81.92
2023-03-29T01:20:43.638Z,81.93
2023-03-29T01:23:33.548Z,81.93
2023-03-29T01:26:14.149Z,82.06
2023-03-29T01:28:47.109Z,81.75
2023-03-29T01:31:21.006Z,82.17
2023-03-29T01:33:52.290Z,82.67
2023-03-29T01:36:25.095Z,82.24
2023-03-29T01:38:57.225Z,81.75
2023-03-29T01:41:36.035Z,82.38
2023-03-29T01:44:10.230Z,81.68
2023-03-29T01:46:44.397Z,82.30
2023-03-29T01:49:17.168Z,82.31
2023-03-29T01:51:51.496Z,81.66
2023-03-29T01:54:24.700Z,82.70
2023-03-29T01:56:53.453Z,82.33
2023-03-29T01:59:26.383Z,83.04
2023-03-29T02:01:58.582Z,82.76
2023-03-29T02:04:31.588Z,82.89
2023-03-29T02:07:02.050Z,82.57
2023-03-29T02:09:30.404Z,81.96
2023-03-29T02:12:01.042Z,82.41
2023-03-29T02:14:30.576Z,82.98
2023-03-29T02:17:20.046Z,82.88
2023-03-29T02:19:53.534Z,82.88
2023-03-29T02:22:25.012Z,83.00
2023-03-29T02:24:59.444Z,82.68
2023-03-29T02:27:28.185Z,82.25
2023-03-29T02:29:57.391Z,81.73
2023-03-29T02:32:32.226Z,82.32
2023-03-29T02:35:04.836Z,82.65
2023-03-29T02:37:34.621Z,82.65
2023-03-29T02:40:12.738Z,81.89
2023-03-29T02:42:41.268Z,82.37
2023-03-29T02:45:14.525Z,82.79
2023-03-29T02:47:43.270Z,81.79
2023-03-29T02:50:11.055Z,81.39
2023-03-29T02:52:43.372Z,82.71
2023-03-29T02:55:16.407Z,81.64
2023-03-29T02:57:44.255Z,81.62
2023-03-29T03:00:14.902Z,82.34
2023-03-29T03:02:43.152Z,82.37
2023-03-29T03:05:11.339Z,82.09
2023-03-29T03:07:40.693Z,81.85
2023-03-29T03:10:10.271Z,81.57
2023-03-29T03:12:39.682Z,82.07
2023-03-29T03:15:08.482Z,82.05
2023-03-29T03:17:40.533Z,81.58
2023-03-29T03:20:13.798Z,81.32
2023-03-29T03:22:45.719Z,81.73
2023-03-29T03:25:13.328Z,81.46
2023-03-29T03:27:41.460Z,82.32
2023-03-29T03:30:10.640Z,81.86
2023-03-29T03:32:51.192Z,81.76
2023-03-29T03:35:23.351Z,81.80
2023-03-29T03:37:51.677Z,81.35
2023-03-29T03:40:19.128Z,81.67
2023-03-29T03:42:46.996Z,81.25
2023-03-29T03:45:14.342Z,81.69
2023-03-29T03:47:56.308Z,81.39
2023-03-29T03:50:33.631Z,80.99
2023-03-29T03:53:01.615Z,80.76
2023-03-29T03:56:02.367Z,81.44
2023-03-29T03:58:35.748Z,81.03
2023-03-29T04:01:05.084Z,80.83
2023-03-29T04:03:41.339Z,81.59
2023-03-29T04:06:12.626Z,80.79
2023-03-29T04:08:58.245Z,81.16
2023-03-29T04:11:34.101Z,81.27
2023-03-29T04:14:01.809Z,80.54
2023-03-29T04:16:49.396Z,80.70
2023-03-29T04:19:38.081Z,80.90
2023-03-29T04:22:05.482Z,80.38
2023-03-29T04:24:33.192Z,80.50
2023-03-29T04:27:19.825Z,80.35
2023-03-29T04:29:48.257Z,80.43
2023-03-29T04:32:36.050Z,79.69
2023-03-29T04:35:10.391Z,79.90
2023-03-29T04:37:40.555Z,79.39
2023-03-29T04:40:15.079Z,79.58
2023-03-29T04:42:54.593Z,79.74
2023-03-29T04:45:22.251Z,79.81
2023-03-29T04:48:08.548Z,79.37
2023-03-29T04:50:40.212Z,78.81
2023-03-29T04:53:08.599Z,78.46
2023-03-29T04:55:36.374Z,78.38
2023-03-29T04:58:06.256Z,77.92
2023-03-29T05:00:39.938Z,78.10
2023-03-29T05:03:13.576Z,77.72
2023-03-29T05:05:52.039Z,78.32
2023-03-29T05:08:19.376Z,78.08
2023-03-29T05:11:24.522Z,77.73
2023-03-29T05:13:51.871Z,77.49
2023-03-29T05:16:20.860Z,77.11
2023-03-29T05:18:51.889Z,77.28
2023-03-29T05:21:22.191Z,77.27
2023-03-29T05:23:49.735Z,77.16
2023-03-29T05:26:17.007Z,77.18
2023-03-29T05:28:52.518Z,76.64
2023-03-29T05:31:20.550Z,76.71
2023-03-29T05:33:55.970Z,76.39
2023-03-29T05:36:25.371Z,76.17
2023-03-29T05:38:54.003Z,75.78
2023-03-29T05:41:24.827Z,75.84
2023-03-29T05:44:15.684Z,75.79
2023-03-29T05:46:45.756Z,75.77
2023-03-29T05:49:16.950Z,75.67
2023-03-29T05:52:18.604Z,75.19
2023-03-29T05:54:46.575Z,75.41
2023-03-29T05:57:17.231Z,75.11
2023-03-29T05:59:45.131Z,75.18
2023-03-29T06:02:12.783Z,74.69
2023-03-29T06:04:45.562Z,74.70
2023-03-29T06:07:26.266Z,74.56
2023-03-29T06:10:12.473Z,74.44
2023-03-29T06:12:43.808Z,74.44
2023-03-29T06:15:13.392Z,74.88
2023-03-29T06:18:10.046Z,74.40
2023-03-29T06:20:38.429Z,74.64
2023-03-29T06:23:15.626Z,74.19
2023-03-29T06:25:44.765Z,74.04
2023-03-29T06:28:12.718Z,74.39
2023-03-29T06:30:41.015Z,74.56
2023-03-29T06:33:09.078Z,74.14
2023-03-29T06:36:02.266Z,74.34
2023-03-29T06:38:32.461Z,74.59
2023-03-29T06:41:23.814Z,74.35
2023-03-29T06:44:13.692Z,74.38
2023-03-29T06:47:04.476Z,74.45
2023-03-29T06:49:31.857Z,75.56
2023-03-29T06:52:27.415Z,76.12
2023-03-29T06:54:56.170Z,76.24
2023-03-29T06:57:25.523Z,76.57
2023-03-29T06:59:53.996Z,76.83
2023-03-29T07:02:34.167Z,76.23
2023-03-29T07:05:13.762Z,76.54
2023-03-29T07:08:05.786Z,76.53
2023-03-29T07:10:54.910Z,76.74
2023-03-29T07:13:42.099Z,77.00
2023-03-29T07:16:12.900Z,76.76
2023-03-29T07:19:04.097Z,76.77
2023-03-29T07:21:50.176Z,77.33
2023-03-29T07:24:19.375Z,77.81
2023-03-29T07:27:00.216Z,78.00
2023-03-29T07:29:31.224Z,78.49
2023-03-29T07:31:58.676Z,78.80
2023-03-29T07:34:55.826Z,79.75
2023-03-29T07:37:30.667Z,79.86
2023-03-29T07:40:00.512Z,80.45
2023-03-29T07:42:46.164Z,80.42
2023-03-29T07:45:18.091Z,80.48
2023-03-29T07:47:59.792Z,79.92
2023-03-29T07:50:33.597Z,80.29
2023-03-29T07:53:03.867Z,79.42
2023-03-29T07:55:33.045Z,79.77
2023-03-29T07:58:18.990Z,79.29
2023-03-29T08:00:46.320Z,79.43
2023-03-29T08:03:42.694Z,79.19
2023-03-29T08:06:10.186Z,78.71
2023-03-29T08:08:37.757Z,78.29
2023-03-29T08:11:12.282Z,78.04
2023-03-29T08:13:59.757Z,77.79
2023-03-29T08:16:27.356Z,77.86
2023-03-29T08:19:08.989Z,77.93
2023-03-29T08:21:52.208Z,78.64
2023-03-29T08:24:22.262Z,78.88
2023-03-29T08:26:54.946Z,79.03
2023-03-29T08:29:23.899Z,78.75
2023-03-29T08:31:51.304Z,78.71
2023-03-29T08:34:18.945Z,79.15
2023-03-29T08:37:12.181Z,78.62
2023-03-29T08:39:43.838Z,79.38
2023-03-29T08:43:13.152Z,79.32
2023-03-29T08:46:15.959Z,79.92
2023-03-29T08:48:48.841Z,80.78
2023-03-29T08:51:24.636Z,81.41
2023-03-29T08:53:56.621Z,81.81
2023-03-29T08:56:36.192Z,82.02
2023-03-29T08:59:15.199Z,83.68
2023-03-29T09:01:45.687Z,83.45
2023-03-29T09:04:18.983Z,84.88
2023-03-29T09:07:13.165Z,84.44
2023-03-29T09:09:44.431Z,85.24
2023-03-29T09:12:44.506Z,85.87
2023-03-29T09:15:16.352Z,85.58
2023-03-29T09:18:06.430Z,85.81
2023-03-29T09:20:42.732Z,85.84
2023-03-29T09:23:28.718Z,86.12
2023-03-29T09:26:23.980Z,86.53
2023-03-29T09:29:23.872Z,87.75
2023-03-29T09:31:53.473Z,88.25
2023-03-29T09:34:31.937Z,88.74
2023-03-29T09:37:11.425Z,89.61
2023-03-29T09:39:41.152Z,89.71
2023-03-29T09:42:14.428Z,90.29
2023-03-29T09:44:48.050Z,90.37
2023-03-29T09:47:25.011Z,90.31
2023-03-29T09:49:59.666Z,91.04
2023-03-29T09:52:27.416Z,90.74
2023-03-29T09:55:08.063Z,90.71
2023-03-29T09:57:53.580Z,91.34
2023-03-29T10:00:21.686Z,91.10
2023-03-29T10:02:52.868Z,91.70
2023-03-29T10:05:32.250Z,91.73
2023-03-29T10:08:01.666Z,91.95
2023-03-29T10:10:32.489Z,92.06
2023-03-29T10:13:01.588Z,92.51
2023-03-29T10:15:30.674Z,92.08
2023-03-29T10:18:00.257Z,91.98
2023-03-29T10:20:28.928Z,92.00
2023-03-29T10:22:58.830Z,91.98
2023-03-29T10:25:29.192Z,91.97
2023-03-29T10:28:04.425Z,91.95
2023-03-29T10:30:35.576Z,92.21
2023-03-29T10:33:03.509Z,92.50
2023-03-29T10:35:35.101Z,92.91
2023-03-29T10:38:07.928Z,92.80
2023-03-29T10:40:43.266Z,92.78
2023-03-29T10:43:21.376Z,93.17
2023-03-29T10:45:49.984Z,93.52
2023-03-29T10:48:18.008Z,93.55
2023-03-29T10:50:53.293Z,94.16
2023-03-29T10:53:25.598Z,93.83
2023-03-29T10:56:01.590Z,93.64
2023-03-29T10:58:42.351Z,93.90
2023-03-29T11:01:17.514Z,94.02
2023-03-29T11:04:01.043Z,94.47
2023-03-29T11:06:37.089Z,94.43
2023-03-29T11:09:15.690Z,95.07
2023-03-29T11:12:12.634Z,94.97
2023-03-29T11:14:54.555Z,94.80
2023-03-29T11:17:28.666Z,95.44
2023-03-29T11:20:12.719Z,95.64
2023-03-29T11:22:49.400Z,95.17
2023-03-29T11:25:30.151Z,95.96
2023-03-29T11:28:05.813Z,96.06
2023-03-29T11:30:42.557Z,96.10
2023-03-29T11:33:22.303Z,96.00
2023-03-29T11:35:57.694Z,95.82
2023-03-29T11:38:33.026Z,96.29
2023-03-29T11:41:06.096Z,96.36
2023-03-29T11:43:38.598Z,96.30
2023-03-29T11:46:12.358Z,96.49
2023-03-29T11:48:47.580Z,96.52
2023-03-29T11:51:21.724Z,96.70
2023-03-29T11:53:57.149Z,96.63
2023-03-29T11:56:31.776Z,96.44
2023-03-29T11:59:07.594Z,96.41
2023-03-29T12:01:40.228Z,96.92
2023-03-29T12:04:11.409Z,96.28
2023-03-29T12:06:44.788Z,96.92
2023-03-29T12:09:25.664Z,96.45
2023-03-29T12:12:00.299Z,97.07
2023-03-29T12:14:36.324Z,96.69
2023-03-29T12:17:09.474Z,96.47
2023-03-29T12:19:43.625Z,96.69
2023-03-29T12:22:11.747Z,96.56
2023-03-29T12:24:47.747Z,97.11
2023-03-29T12:27:26.604Z,97.07
2023-03-29T12:30:16.573Z,97.28
2023-03-29T12:32:55.161Z,97.53
2023-03-29T12:35:59.157Z,97.36
2023-03-29T12:38:48.290Z,97.36
2023-03-29T12:41:38.469Z,97.11
2023-03-29T12:44:22.621Z,97.57
2023-03-29T12:46:59.571Z,97.71
2023-03-29T12:49:29.693Z,96.96
2023-03-29T12:51:59.286Z,97.35
2023-03-29T12:54:31.248Z,97.17
2023-03-29T12:57:01.807Z,97.38
2023-03-29T12:59:38.104Z,97.67
2023-03-29T13:02:33.280Z,97.53
2023-03-29T13:05:01.595Z,97.71
2023-03-29T13:07:43.616Z,97.53
2023-03-29T13:10:37.636Z,97.61
2023-03-29T13:13:17.354Z,97.88
2023-03-29T13:15:46.296Z,97.78
2023-03-29T13:18:34.039Z,97.84
2023-03-29T13:21:12.167Z,96.94
2023-03-29T13:23:52.054Z,97.71
2023-03-29T13:26:46.143Z,97.11
2023-03-29T13:29:51.922Z,97.47
2023-03-29T13:32:37.342Z,97.72
2023-03-29T13:35:15.846Z,97.03
2023-03-29T13:37:54.367Z,97.14
2023-03-29T13:40:31.893Z,97.53
2023-03-29T13:43:08.268Z,97.91
2023-03-29T13:45:37.174Z,97.07
2023-03-29T13:48:06.523Z,97.14
2023-03-29T13:50:37.804Z,97.15
2023-03-29T13:53:12.766Z,97.00
2023-03-29T13:55:47.567Z,97.40
2023-03-29T13:58:34.317Z,97.30
2023-03-29T14:01:07.636Z,96.94
2023-03-29T14:03:42.398Z,97.42
2023-03-29T14:06:12.847Z,97.73
2023-03-29T14:08:41.482Z,97.09
2023-03-29T14:11:19.989Z,97.36
2023-03-29T14:13:51.727Z,97.66
2023-03-29T14:16:22.325Z,97.47
2023-03-29T14:18:51.535Z,96.84
2023-03-29T14:21:20.698Z,97.01
2023-03-29T14:23:54.914Z,97.27
2023-03-29T14:26:24.920Z,96.82
2023-03-29T14:28:56.739Z,96.53
2023-03-29T14:31:26.622Z,96.54
2023-03-29T14:33:54.657Z,96.61
2023-03-29T14:36:23.365Z,96.89
2023-03-29T14:38:53.394Z,96.95
2023-03-29T14:41:23.194Z,96.42
2023-03-29T14:43:53.093Z,97.31
2023-03-29T14:46:21.723Z,97.32
2023-03-29T14:48:49.728Z,97.31
2023-03-29T14:51:17.289Z,97.25
2023-03-29T14:53:44.823Z,97.38
2023-03-29T14:56:18.320Z,97.19
2023-03-29T14:58:49.548Z,97.53
2023-03-29T15:01:20.592Z,96.83
2023-03-29T15:03:55.232Z,97.26
2023-03-29T15:06:24.180Z,96.95
2023-03-29T15:09:04.344Z,97.05
2023-03-29T15:11:34.545Z,97.25
2023-03-29T15:14:04.782Z,97.13
2023-03-29T15:16:33.900Z,97.12
2023-03-29T15:19:02.385Z,96.81
2023-03-29T15:21:32.417Z,96.65
2023-03-29T15:24:02.330Z,96.21
2023-03-29T15:26:32.161Z,96.78
2023-03-29T15:29:07.640Z,96.72
2023-03-29T15:31:41.928Z,96.92
2023-03-29T15:34:12.723Z,96.96
2023-03-29T15:36:42.364Z,96.85
2023-03-29T15:39:12.798Z,96.70
2023-03-29T15:41:40.243Z,96.81
2023-03-29T15:44:07.563Z,96.81
2023-03-29T15:46:35.154Z,96.82
2023-03-29T15:49:05.152Z,97.15
2023-03-29T15:51:32.471Z,97.36
2023-03-29T15:53:59.696Z,96.80
2023-03-29T15:56:27.210Z,97.59
2023-03-29T15:58:54.709Z,96.96
2023-03-29T16:01:37.666Z,96.74
2023-03-29T16:04:11.075Z,96.83
2023-03-29T16:06:38.692Z,97.10
2023-03-29T16:09:07.248Z,97.14
2023-03-29T16:11:35.454Z,96.85
2023-03-29T16:14:02.983Z,97.04
2023-03-29T16:16:30.477Z,97.19
2023-03-29T16:18:57.721Z,96.75
2023-03-29T16:21:27.376Z,97.21
2023-03-29T16:23:54.949Z,97.34
2023-03-29T16:26:23.083Z,97.30
2023-03-29T16:28:50.869Z,97.24
2023-03-29T16:31:20.560Z,96.93
2023-03-29T16:33:48.277Z,96.83
2023-03-29T16:36:15.655Z,97.02
2023-03-29T16:38:44.581Z,97.17
2023-03-29T16:41:15.219Z,96.69
2023-03-29T16:43:42.627Z,96.35
2023-03-29T16:46:10.782Z,96.74
2023-03-29T16:48:38.493Z,96.46
2023-03-29T16:51:07.179Z,96.32
2023-03-29T16:53:34.827Z,96.92
2023-03-29T16:56:08.793Z,96.94
2023-03-29T16:58:39.434Z,96.26
2023-03-29T17:01:09.870Z,96.61
2023-03-29T17:03:37.916Z,96.37
2023-03-29T17:06:06.900Z,96.02
2023-03-29T17:08:34.419Z,96.19
2023-03-29T17:11:03.343Z,95.82
2023-03-29T17:13:30.617Z,96.26
2023-03-29T17:15:58.191Z,96.25
2023-03-29T17:18:27.132Z,96.13
2023-03-29T17:20:57.142Z,95.85
2023-03-29T17:23:24.925Z,95.69
2023-03-29T17:25:56.080Z,96.13
2023-03-29T17:28:24.967Z,95.85
2023-03-29T17:30:52.481Z,95.62
2023-03-29T17:33:22.824Z,95.93
2023-03-29T17:35:50.345Z,96.18
2023-03-29T17:38:17.719Z,96.21
2023-03-29T17:40:51.583Z,95.93
2023-03-29T17:43:19.162Z,95.60
2023-03-29T17:45:53.015Z,96.07
2023-03-29T17:48:21.848Z,96.15
2023-03-29T17:50:49.255Z,95.72
2023-03-29T17:53:16.767Z,95.67
2023-03-29T17:55:44.143Z,95.68
2023-03-29T17:58:11.887Z,95.69
2023-03-29T18:00:39.333Z,96.20
2023-03-29T18:03:08.489Z,95.73
2023-03-29T18:05:36.301Z,95.50
2023-03-29T18:08:04.110Z,96.19
2023-03-29T18:10:31.396Z,95.96
2023-03-29T18:12:58.979Z,96.24
2023-03-29T18:15:26.421Z,95.74
2023-03-29T18:17:53.955Z,96.01
2023-03-29T18:20:23.026Z,96.11
2023-03-29T18:22:50.587Z,95.96
2023-03-29T18:25:18.405Z,96.13
2023-03-29T18:27:45.756Z,95.59
2023-03-29T18:30:14.118Z,96.28
2023-03-29T18:32:41.631Z,96.21
2023-03-29T18:35:10.035Z,96.17
2023-03-29T18:37:38.841Z,95.86
2023-03-29T18:40:08.451Z,96.27
2023-03-29T18:42:35.778Z,95.96
2023-03-29T18:45:04.457Z,96.35
2023-03-29T18:47:31.909Z,96.45
2023-03-29T18:49:59.325Z,96.24
2023-03-29T18:52:27.557Z,96.64
2023-03-29T18:54:56.287Z,96.91
2023-03-29T18:57:23.907Z,96.33
2023-03-29T18:59:51.312Z,96.64
2023-03-29T19:02:18.737Z,97.33
2023-03-29T19:04:46.244Z,96.86
2023-03-29T19:07:13.806Z,97.10
2023-03-29T19:09:41.931Z,96.97
2023-03-29T19:12:10.881Z,97.10
2023-03-29T19:14:38.248Z,97.01
2023-03-29T19:17:05.568Z,97.07
2023-03-29T19:19:33.023Z,96.92
2023-03-29T19:22:00.931Z,97.51
2023-03-29T19:24:28.642Z,97.50
2023-03-29T19:26:56.631Z,97.20
2023-03-29T19:29:26.272Z,97.24
2023-03-29T19:31:54.756Z,97.66
2023-03-29T19:34:24.077Z,98.08
2023-03-29T19:36:53.613Z,97.42
2023-03-29T19:39:21.702Z,97.69
2023-03-29T19:41:49.066Z,97.82
2023-03-29T19:44:17.008Z,98.02
2023-03-29T19:46:45.838Z,97.58
2023-03-29T19:49:13.941Z,97.57
2023-03-29T19:51:42.111Z,97.27
2023-03-29T19:54:13.140Z,97.48
2023-03-29T19:56:45.603Z,97.90
2023-03-29T19:59:15.149Z,97.74
2023-03-29T20:01:44.207Z,97.60
2023-03-29T20:04:14.046Z,97.99
2023-03-29T20:06:41.862Z,97.93
2023-03-29T20:09:11.456Z,98.09
2023-03-29T20:11:39.262Z,97.65
2023-03-29T20:14:10.378Z,98.35
2023-03-29T20:16:38.107Z,97.93
2023-03-29T20:19:08.362Z,98.00
2023-03-29T20:21:37.481Z,97.91
2023-03-29T20:24:06.003Z,98.08
2023-03-29T20:26:33.474Z,98.25
2023-03-29T20:29:02.014Z,98.28
2023-03-29T20:31:30.285Z,97.51
2023-03-29T20:33:57.726Z,97.48
2023-03-29T20:36:26.773Z,97.91
2023-03-29T20:38:56.540Z,98.00
2023-03-29T20:41:23.846Z,98.02
2023-03-29T20:43:58.578Z,97.44
2023-03-29T20:46:33.585Z,98.08
2023-03-29T20:49:01.524Z,97.68
2023-03-29T20:51:30.502Z,97.86
2023-03-29T20:54:03.505Z,97.98
2023-03-29T20:56:32.079Z,97.81
2023-03-29T20:58:59.447Z,98.17
2023-03-29T21:01:28.040Z,97.50
2023-03-29T21:03:55.903Z,98.02
2023-03-29T21:06:24.563Z,98.11
2023-03-29T21:08:52.732Z,98.13
2023-03-29T21:11:21.604Z,97.85
2023-03-29T21:13:49.019Z,98.20
2023-03-29T21:16:16.354Z,97.87
2023-03-29T21:18:43.892Z,98.06
2023-03-29T21:21:13.737Z,97.78
2023-03-29T21:23:41.067Z,98.30
2023-03-29T21:26:09.424Z,97.66
2023-03-29T21:28:38.331Z,98.04
2023-03-29T21:31:06.821Z,98.22
2023-03-29T21:33:34.950Z,98.21
2023-03-29T21:36:02.730Z,98.01
2023-03-29T21:38:30.043Z,97.85
2023-03-29T21:40:58.313Z,98.33
2023-03-29T21:43:25.993Z,98.45
2023-03-29T21:45:54.959Z,98.39
2023-03-29T21:48:22.391Z,98.16
2023-03-29T21:50:55.852Z,97.68
2023-03-29T21:53:23.407Z,97.76
2023-03-29T21:55:51.570Z,98.17
2023-03-29T21:58:19.325Z,98.25
2023-03-29T22:00:47.612Z,98.07
2023-03-29T22:03:16.846Z,98.38
2023-03-29T22:05:54.689Z,98.56
2023-03-29T22:08:26.413Z,97.80
2023-03-29T22:10:55.593Z,97.96
2023-03-29T22:13:24.116Z,98.24
2023-03-29T22:16:01.227Z,97.84
2023-03-29T22:18:42.491Z,98.14
2023-03-29T22:21:13.912Z,98.34
2023-03-29T22:23:42.385Z,97.83
2023-03-29T22:26:12.733Z,97.77
2023-03-29T22:28:40.808Z,98.30
2023-03-29T22:31:10.125Z,98.07
2023-03-29T22:33:38.988Z,97.63
2023-03-29T22:36:14.305Z,98.10
2023-03-29T22:38:41.830Z,97.78
2023-03-29T22:41:09.702Z,97.90
2023-03-29T22:43:37.318Z,97.86
2023-03-29T22:46:05.474Z,98.19
2023-03-29T22:48:33.584Z,98.19
2023-03-29T22:51:02.527Z,97.68
2023-03-29T22:53:29.989Z,97.63
2023-03-29T22:55:57.661Z,97.49
2023-03-29T22:58:25.298Z,98.20
2023-03-29T23:00:53.360Z,98.22
2023-03-29T23:03:20.786Z,97.87
2023-03-29T23:05:50.411Z,98.32
2023-03-29T23:08:19.427Z,97.78
2023-03-29T23:10:47.139Z,97.97
2023-03-29T23:13:20.031Z,97.72
2023-03-29T23:15:48.848Z,98.00
2023-03-29T23:18:18.336Z,98.15
2023-03-29T23:20:47.524Z,98.44
2023-03-29T23:23:15.683Z,98.16
2023-03-29T23:25:45.871Z,98.04
2023-03-29T23:28:13.203Z,97.88
2023-03-29T23:30:41.009Z,97.89
2023-03-29T23:33:10.580Z,98.20
2023-03-29T23:35:38.345Z,98.52
2023-03-29T23:38:05.757Z,98.19
2023-03-29T23:40:33.390Z,98.10
2023-03-29T23:43:04.271Z,98.43
2023-03-29T23:45:31.963Z,97.96
2023-03-29T23:47:59.209Z,97.73
2023-03-29T23:50:28.826Z,97.92
2023-03-29T23:52:56.366Z,97.69
2023-03-29T23:55:23.705Z,98.30
2023-03-29T23:57:51.323Z,97.30
